createdAt,value
2023-02-11T00:00:43.272Z,64.56
2023-02-11T00:03:10.373Z,62.13
2023-02-11T00:05:37.484Z,60.12
2023-02-11T00:08:04.573Z,59.15
2023-02-11T00:10:31.482Z,61.94
2023-02-11T00:12:58.436Z,64.47
2023-02-11T00:15:25.288Z,63.12
2023-02-11T00:17:52.241Z,61.36
2023-02-11T00:20:19.299Z,60.46
2023-02-11T00:22:46.245Z,60.12
2023-02-11T00:25:16.262Z,59.40
2023-02-11T00:27:43.215Z,60.60
2023-02-11T00:30:11.717Z,63.97
2023-02-11T00:32:39.734Z,59.86
2023-02-11T00:35:07.331Z,56.44
2023-02-11T00:37:36.636Z,59.39
2023-02-11T00:40:06.876Z,63.89
2023-02-11T00:42:35.751Z,63.45
2023-02-11T00:45:03.027Z,60.27
2023-02-11T00:47:29.945Z,59.46
2023-02-11T00:49:57.139Z,60.26
2023-02-11T00:52:24.067Z,63.83
2023-02-11T00:54:51.116Z,63.70
2023-02-11T00:57:18.069Z,61.94
2023-02-11T00:59:44.915Z,60.05
2023-02-11T01:02:11.882Z,58.82
2023-02-11T01:04:38.923Z,61.25
2023-02-11T01:07:07.509Z,64.88
2023-02-11T01:09:34.666Z,63.93
2023-02-11T01:12:01.559Z,61.71
2023-02-11T01:14:28.669Z,58.89
2023-02-11T01:16:55.721Z,58.93
2023-02-11T01:19:22.779Z,62.48
2023-02-11T01:21:49.837Z,64.69
2023-02-11T01:24:16.882Z,61.82
2023-02-11T01:26:44.402Z,58.77
2023-02-11T01:29:11.278Z,59.66
2023-02-11T01:31:38.411Z,63.45
2023-02-11T01:34:05.399Z,63.56
2023-02-11T01:36:32.674Z,60.38
2023-02-11T01:39:00.529Z,58.48
2023-02-11T01:41:27.702Z,60.69
2023-02-11T01:43:57.806Z,64.42
2023-02-11T01:46:36.145Z,63.44
2023-02-11T01:49:15.029Z,60.33
2023-02-11T01:51:47.026Z,58.70
2023-02-11T01:54:39.031Z,60.95
2023-02-11T01:57:22.771Z,64.48
2023-02-11T01:59:58.921Z,62.80
2023-02-11T02:02:39.488Z,60.00
2023-02-11T02:05:12.571Z,59.28
2023-02-11T02:07:56.611Z,61.95
2023-02-11T02:10:26.842Z,64.94
2023-02-11T02:12:54.399Z,62.29
2023-02-11T02:15:32.092Z,60.42
2023-02-11T02:18:44.481Z,58.63
2023-02-11T02:21:23.616Z,61.09
2023-02-11T02:23:56.496Z,64.54
2023-02-11T02:26:39.002Z,62.95
2023-02-11T02:29:43.816Z,59.21
2023-02-11T02:32:32.627Z,58.80
2023-02-11T02:35:11.890Z,62.51
2023-02-11T02:37:48.461Z,64.35
2023-02-11T02:40:21.446Z,60.06
2023-02-11T02:42:49.738Z,58.88
2023-02-11T02:45:17.199Z,61.89
2023-02-11T02:47:44.142Z,64.32
2023-02-11T02:50:14.371Z,61.87
2023-02-11T02:53:06.699Z,60.45
2023-02-11T02:56:13.151Z,60.04
2023-02-11T02:58:58.841Z,59.31
2023-02-11T03:01:34.178Z,61.55
2023-02-11T03:04:01.240Z,64.54
2023-02-11T03:07:03.580Z,63.71
2023-02-11T03:09:42.695Z,62.52
2023-02-11T03:12:13.344Z,61.06
2023-02-11T03:14:42.390Z,60.79
2023-02-11T03:17:16.804Z,59.85
2023-02-11T03:19:46.435Z,59.12
2023-02-11T03:22:25.667Z,61.15
2023-02-11T03:24:53.753Z,64.52
2023-02-11T03:28:05.325Z,64.25
2023-02-11T03:30:39.329Z,63.00
2023-02-11T03:33:15.788Z,60.52
2023-02-11T03:35:51.485Z,58.82
2023-02-11T03:38:48.274Z,61.67
2023-02-11T03:41:18.293Z,64.89
2023-02-11T03:43:50.773Z,62.78
2023-02-11T03:46:22.666Z,60.46
2023-02-11T03:48:54.798Z,58.83
2023-02-11T03:51:24.474Z,61.16
2023-02-11T03:53:55.351Z,63.88
2023-02-11T03:56:27.216Z,62.68
2023-02-11T03:58:58.124Z,60.40
2023-02-11T04:01:25.031Z,58.87
2023-02-11T04:03:51.953Z,60.36
2023-02-11T04:06:18.905Z,63.56
2023-02-11T04:08:46.011Z,63.26
2023-02-11T04:11:12.912Z,60.38
2023-02-11T04:13:39.858Z,58.50
2023-02-11T04:16:07.066Z,59.75
2023-02-11T04:18:34.064Z,63.17
2023-02-11T04:21:01.024Z,60.55
2023-02-11T04:23:28.070Z,56.03
2023-02-11T04:25:55.019Z,58.47
2023-02-11T04:28:21.926Z,61.51
2023-02-11T04:30:51.230Z,63.94
2023-02-11T04:33:18.268Z,59.95
2023-02-11T04:35:45.483Z,57.36
2023-02-11T04:38:12.432Z,60.17
2023-02-11T04:40:40.182Z,63.18
2023-02-11T04:43:07.264Z,63.32
2023-02-11T04:45:34.824Z,58.36
2023-02-11T04:48:03.397Z,58.55
2023-02-11T04:50:30.666Z,61.05
2023-02-11T04:52:57.527Z,63.50
2023-02-11T04:55:24.497Z,61.43
2023-02-11T04:57:51.412Z,58.56
2023-02-11T05:00:18.674Z,59.44
2023-02-11T05:02:45.466Z,62.46
2023-02-11T05:05:12.264Z,63.08
2023-02-11T05:07:39.019Z,60.68
2023-02-11T05:10:06.582Z,58.44
2023-02-11T05:12:33.472Z,59.75
2023-02-11T05:15:00.396Z,62.93
2023-02-11T05:17:27.222Z,62.67
2023-02-11T05:19:54.077Z,60.01
2023-02-11T05:22:22.172Z,58.49
2023-02-11T05:24:49.092Z,60.92
2023-02-11T05:27:16.044Z,63.92
2023-02-11T05:29:42.899Z,62.44
2023-02-11T05:32:09.744Z,60.24
2023-02-11T05:34:37.106Z,58.95
2023-02-11T05:37:04.202Z,60.29
2023-02-11T05:39:31.208Z,63.51
2023-02-11T05:41:58.160Z,63.01
2023-02-11T05:44:24.968Z,59.70
2023-02-11T05:46:51.852Z,59.44
2023-02-11T05:49:18.905Z,62.08
2023-02-11T05:51:45.857Z,64.02
2023-02-11T05:54:13.116Z,61.20
2023-02-11T05:56:40.004Z,59.46
2023-02-11T05:59:06.815Z,58.59
2023-02-11T06:01:33.763Z,60.80
2023-02-11T06:04:00.776Z,63.38
2023-02-11T06:06:27.865Z,61.55
2023-02-11T06:08:54.770Z,59.63
2023-02-11T06:11:21.621Z,58.86
2023-02-11T06:13:48.414Z,61.72
2023-02-11T06:16:15.406Z,63.86
2023-02-11T06:18:42.414Z,61.83
2023-02-11T06:21:11.108Z,59.09
2023-02-11T06:23:38.783Z,59.60
2023-02-11T06:26:08.363Z,62.66
2023-02-11T06:28:36.271Z,63.19
2023-02-11T06:31:08.044Z,60.18
2023-02-11T06:33:35.684Z,58.83
2023-02-11T06:36:04.376Z,60.78
2023-02-11T06:38:31.527Z,63.53
2023-02-11T06:40:58.640Z,62.11
2023-02-11T06:43:25.532Z,59.13
2023-02-11T06:45:54.541Z,58.70
2023-02-11T06:48:22.514Z,61.32
2023-02-11T06:50:49.457Z,63.57
2023-02-11T06:53:16.403Z,61.66
2023-02-11T06:55:43.366Z,58.69
2023-02-11T06:58:10.201Z,59.48
2023-02-11T07:00:37.869Z,62.42
2023-02-11T07:03:04.849Z,62.92
2023-02-11T07:05:31.871Z,59.61
2023-02-11T07:07:58.721Z,58.81
2023-02-11T07:10:25.667Z,61.56
2023-02-11T07:12:52.517Z,62.91
2023-02-11T07:15:22.331Z,60.22
2023-02-11T07:17:49.031Z,58.89
2023-02-11T07:20:16.459Z,61.09
2023-02-11T07:22:43.386Z,63.21
2023-02-11T07:25:10.240Z,60.66
2023-02-11T07:27:37.202Z,58.47
2023-02-11T07:30:07.260Z,60.53
2023-02-11T07:32:34.270Z,63.27
2023-02-11T07:35:01.199Z,62.02
2023-02-11T07:37:28.660Z,59.32
2023-02-11T07:39:55.638Z,59.84
2023-02-11T07:42:22.577Z,62.81
2023-02-11T07:44:50.558Z,63.20
2023-02-11T07:47:18.227Z,61.04
2023-02-11T07:49:46.092Z,59.03
2023-02-11T07:52:12.930Z,60.74
2023-02-11T07:54:39.989Z,63.99
2023-02-11T07:57:07.041Z,62.43
2023-02-11T07:59:34.088Z,61.07
2023-02-11T08:02:00.988Z,60.00
2023-02-11T08:04:27.990Z,59.00
2023-02-11T08:06:59.099Z,62.51
2023-02-11T08:09:26.205Z,64.39
2023-02-11T08:11:53.058Z,62.68
2023-02-11T08:14:20.907Z,60.40
2023-02-11T08:16:47.933Z,60.15
2023-02-11T08:19:17.066Z,63.85
2023-02-11T08:21:44.886Z,64.11
2023-02-11T08:24:12.097Z,62.84
2023-02-11T08:26:39.457Z,61.50
2023-02-11T08:29:11.306Z,61.49
2023-02-11T08:31:41.497Z,61.05
2023-02-11T08:34:10.235Z,61.12
2023-02-11T08:36:39.012Z,60.57
2023-02-11T08:39:19.609Z,60.16
2023-02-11T08:41:53.846Z,60.27
2023-02-11T08:44:21.887Z,60.50
2023-02-11T08:46:50.465Z,59.87
2023-02-11T08:49:17.824Z,59.77
2023-02-11T08:51:47.066Z,64.06
2023-02-11T08:54:14.991Z,65.03
2023-02-11T08:56:42.557Z,63.55
2023-02-11T08:59:11.329Z,62.50
2023-02-11T09:01:38.340Z,62.00
2023-02-11T09:04:05.659Z,61.24
2023-02-11T09:06:32.817Z,60.92
2023-02-11T09:09:00.066Z,61.00
2023-02-11T09:11:35.616Z,60.55
2023-02-11T09:14:05.011Z,61.17
2023-02-11T09:16:35.462Z,61.07
2023-02-11T09:19:05.708Z,60.77
2023-02-11T09:21:32.744Z,60.81
2023-02-11T09:23:59.681Z,61.09
2023-02-11T09:26:29.904Z,60.87
2023-02-11T09:28:57.085Z,60.79
2023-02-11T09:31:26.706Z,60.00
2023-02-11T09:33:57.048Z,60.48
2023-02-11T09:36:26.308Z,61.13
2023-02-11T09:38:55.011Z,60.24
2023-02-11T09:41:35.821Z,60.29
2023-02-11T09:44:05.688Z,60.71
2023-02-11T09:46:34.938Z,60.26
2023-02-11T09:49:02.962Z,60.47
2023-02-11T09:52:05.112Z,60.23
2023-02-11T09:54:35.852Z,60.30
2023-02-11T09:57:03.000Z,60.69
2023-02-11T09:59:29.960Z,61.16
2023-02-11T10:02:13.377Z,62.07
2023-02-11T10:05:23.040Z,62.20
2023-02-11T10:07:56.809Z,62.54
2023-02-11T10:10:36.208Z,61.93
2023-02-11T10:13:42.342Z,62.73
2023-02-11T10:16:40.448Z,63.35
2023-02-11T10:19:36.563Z,64.10
2023-02-11T10:22:24.501Z,63.95
2023-02-11T10:24:58.594Z,63.14
2023-02-11T10:27:33.541Z,64.31
2023-02-11T10:30:07.963Z,64.19
2023-02-11T10:32:53.638Z,64.10
2023-02-11T10:35:23.560Z,63.60
2023-02-11T10:37:50.802Z,63.45
2023-02-11T10:40:24.015Z,63.41
2023-02-11T10:42:55.761Z,63.48
2023-02-11T10:45:33.958Z,63.43
2023-02-11T10:48:03.586Z,63.28
2023-02-11T10:50:37.118Z,63.39
2023-02-11T10:53:21.203Z,64.24
2023-02-11T10:55:57.512Z,64.17
2023-02-11T10:58:44.188Z,64.34
2023-02-11T11:01:23.745Z,63.79
2023-02-11T11:03:52.976Z,63.42
2023-02-11T11:06:32.110Z,63.64
2023-02-11T11:08:59.621Z,63.60
2023-02-11T11:11:27.609Z,63.35
2023-02-11T11:13:54.562Z,63.58
2023-02-11T11:16:36.041Z,63.70
2023-02-11T11:19:09.226Z,63.66
2023-02-11T11:21:46.000Z,63.30
2023-02-11T11:24:38.327Z,63.60
2023-02-11T11:27:06.522Z,64.03
2023-02-11T11:29:39.080Z,63.67
2023-02-11T11:32:37.461Z,63.77
2023-02-11T11:35:20.875Z,64.24
2023-02-11T11:37:54.584Z,64.38
2023-02-11T11:40:26.558Z,63.82
2023-02-11T11:43:24.088Z,63.78
2023-02-11T11:45:57.073Z,64.61
2023-02-11T11:48:31.799Z,64.40
2023-02-11T11:51:04.295Z,64.64
2023-02-11T11:53:31.441Z,63.91
2023-02-11T11:56:01.863Z,64.42
2023-02-11T11:58:31.272Z,64.61
2023-02-11T12:01:06.711Z,64.64
2023-02-11T12:03:55.358Z,64.97
2023-02-11T12:06:43.498Z,65.24
2023-02-11T12:09:29.688Z,66.11
2023-02-11T12:12:11.784Z,66.03
2023-02-11T12:15:05.087Z,64.74
2023-02-11T12:17:58.786Z,63.71
2023-02-11T12:20:44.159Z,64.22
2023-02-11T12:23:38.124Z,63.40
2023-02-11T12:26:23.596Z,63.58
2023-02-11T12:29:28.105Z,63.19
2023-02-11T12:32:15.374Z,63.45
2023-02-11T12:34:54.652Z,63.48
2023-02-11T12:37:41.563Z,63.10
2023-02-11T12:40:32.968Z,62.69
2023-02-11T12:43:46.677Z,62.93
2023-02-11T12:46:42.997Z,62.81
2023-02-11T12:49:21.834Z,62.42
2023-02-11T12:52:04.123Z,62.31
2023-02-11T12:54:38.644Z,62.59
2023-02-11T12:57:08.564Z,62.52
2023-02-11T12:59:35.309Z,62.66
2023-02-11T13:02:11.704Z,62.61
2023-02-11T13:04:44.260Z,62.83
2023-02-11T13:07:18.373Z,62.97
2023-02-11T13:10:11.712Z,63.26
2023-02-11T13:12:58.421Z,62.99
2023-02-11T13:15:26.360Z,63.37
2023-02-11T13:18:02.555Z,63.46
2023-02-11T13:20:45.878Z,62.93
2023-02-11T13:23:28.110Z,62.83
2023-02-11T13:26:20.716Z,62.56
2023-02-11T13:29:26.892Z,62.41
2023-02-11T13:31:56.498Z,62.54
2023-02-11T13:34:47.266Z,62.49
2023-02-11T13:37:29.648Z,62.74
2023-02-11T13:40:07.670Z,63.16
2023-02-11T13:42:56.315Z,63.47
2023-02-11T13:45:38.538Z,63.85
2023-02-11T13:48:15.919Z,63.82
2023-02-11T13:50:49.174Z,64.21
2023-02-11T13:53:17.985Z,64.41
2023-02-11T13:55:54.529Z,64.61
2023-02-11T13:58:27.647Z,64.39
2023-02-11T14:00:55.272Z,64.07
2023-02-11T14:03:54.118Z,63.86
2023-02-11T14:06:45.702Z,63.79
2023-02-11T14:09:13.776Z,63.59
2023-02-11T14:11:41.744Z,63.67
2023-02-11T14:14:32.457Z,63.74
2023-02-11T14:17:02.674Z,63.54
2023-02-11T14:19:37.189Z,63.66
2023-02-11T14:22:53.673Z,63.87
2023-02-11T14:25:26.456Z,63.74
2023-02-11T14:28:17.082Z,63.60
2023-02-11T14:30:55.152Z,63.88
2023-02-11T14:33:52.701Z,63.83
2023-02-11T14:36:44.829Z,63.51
2023-02-11T14:39:49.944Z,63.56
2023-02-11T14:42:21.748Z,63.60
2023-02-11T14:44:54.659Z,63.61
2023-02-11T14:47:29.319Z,63.26
2023-02-11T14:49:56.984Z,63.34
2023-02-11T14:52:28.748Z,63.22
2023-02-11T14:55:13.584Z,63.22
2023-02-11T14:57:42.471Z,63.33
2023-02-11T15:00:16.915Z,63.23
2023-02-11T15:02:44.906Z,63.03
2023-02-11T15:05:29.444Z,62.92
2023-02-11T15:07:59.859Z,63.02
2023-02-11T15:10:26.938Z,63.17
2023-02-11T15:12:54.298Z,63.28
2023-02-11T15:15:22.077Z,63.69
2023-02-11T15:17:49.465Z,63.24
2023-02-11T15:20:25.066Z,63.46
2023-02-11T15:22:59.552Z,63.56
2023-02-11T15:25:28.501Z,63.48
2023-02-11T15:27:58.105Z,63.49
2023-02-11T15:30:29.038Z,63.62
2023-02-11T15:33:00.123Z,63.51
2023-02-11T15:35:31.530Z,63.62
2023-02-11T15:38:00.170Z,63.51
2023-02-11T15:40:32.390Z,63.70
2023-02-11T15:43:03.540Z,64.18
2023-02-11T15:45:30.702Z,64.27
2023-02-11T15:48:07.279Z,64.14
2023-02-11T15:50:37.680Z,64.43
2023-02-11T15:53:42.606Z,64.52
2023-02-11T15:56:38.002Z,64.52
2023-02-11T15:59:30.788Z,64.29
2023-02-11T16:02:05.917Z,64.47
2023-02-11T16:04:33.281Z,64.24
2023-02-11T16:07:00.705Z,63.90
2023-02-11T16:09:34.529Z,63.97
2023-02-11T16:12:04.840Z,63.71
2023-02-11T16:14:39.675Z,63.64
2023-02-11T16:17:09.999Z,63.51
2023-02-11T16:19:44.951Z,63.32
2023-02-11T16:22:17.954Z,63.22
2023-02-11T16:24:48.883Z,63.74
2023-02-11T16:27:40.296Z,63.78
2023-02-11T16:30:35.649Z,63.44
2023-02-11T16:33:03.441Z,63.24
2023-02-11T16:35:31.213Z,63.41
2023-02-11T16:37:58.466Z,63.50
2023-02-11T16:40:25.724Z,63.18
2023-02-11T16:42:53.700Z,63.01
2023-02-11T16:45:20.832Z,63.40
2023-02-11T16:47:48.003Z,63.62
2023-02-11T16:50:24.167Z,63.74
2023-02-11T16:52:53.005Z,63.96
2023-02-11T16:55:22.079Z,63.91
2023-02-11T16:57:49.258Z,64.04
2023-02-11T17:00:17.607Z,63.84
2023-02-11T17:02:44.950Z,63.46
2023-02-11T17:05:26.236Z,63.52
2023-02-11T17:07:53.193Z,63.82
2023-02-11T17:10:24.023Z,63.77
2023-02-11T17:12:51.512Z,63.68
2023-02-11T17:15:18.736Z,63.97
2023-02-11T17:17:46.577Z,63.84
2023-02-11T17:20:17.549Z,63.88
2023-02-11T17:22:46.330Z,64.01
2023-02-11T17:25:15.152Z,64.08
2023-02-11T17:27:43.129Z,64.49
2023-02-11T17:30:11.871Z,64.19
2023-02-11T17:32:40.081Z,63.84
2023-02-11T17:35:07.957Z,63.89
2023-02-11T17:37:35.012Z,63.95
2023-02-11T17:40:02.070Z,64.16
2023-02-11T17:42:30.141Z,64.07
2023-02-11T17:44:57.183Z,64.15
2023-02-11T17:47:24.749Z,64.00
2023-02-11T17:49:52.079Z,63.80
2023-02-11T17:52:19.677Z,63.85
2023-02-11T17:54:47.235Z,63.75
2023-02-11T17:57:14.498Z,63.71
2023-02-11T17:59:42.632Z,63.66
2023-02-11T18:02:12.307Z,63.35
2023-02-11T18:04:40.798Z,63.27
2023-02-11T18:07:08.062Z,63.05
2023-02-11T18:09:39.369Z,63.29
2023-02-11T18:12:07.847Z,63.44
2023-02-11T18:14:34.920Z,63.18
2023-02-11T18:17:01.864Z,62.95
2023-02-11T18:19:31.173Z,62.94
2023-02-11T18:22:01.256Z,62.67
2023-02-11T18:24:28.549Z,63.21
2023-02-11T18:26:55.431Z,63.06
2023-02-11T18:29:22.960Z,62.73
2023-02-11T18:31:54.783Z,62.08
2023-02-11T18:34:21.780Z,62.00
2023-02-11T18:36:49.243Z,62.26
2023-02-11T18:39:17.150Z,62.20
2023-02-11T18:41:44.069Z,62.03
2023-02-11T18:44:14.259Z,62.09
2023-02-11T18:46:41.258Z,61.53
2023-02-11T18:49:13.315Z,61.33
2023-02-11T18:51:40.872Z,61.72
2023-02-11T18:54:07.826Z,61.44
2023-02-11T18:56:35.184Z,61.18
2023-02-11T18:59:02.562Z,60.95
2023-02-11T19:01:31.552Z,60.61
2023-02-11T19:04:03.103Z,60.63
2023-02-11T19:06:34.866Z,60.81
2023-02-11T19:09:06.233Z,60.54
2023-02-11T19:11:50.595Z,60.45
2023-02-11T19:14:44.566Z,60.41
2023-02-11T19:17:13.287Z,60.30
2023-02-11T19:19:41.386Z,60.19
2023-02-11T19:22:10.701Z,59.91
2023-02-11T19:24:38.189Z,60.00
2023-02-11T19:27:05.617Z,60.18
2023-02-11T19:29:35.561Z,59.90
2023-02-11T19:32:06.301Z,59.48
2023-02-11T19:34:34.052Z,59.26
2023-02-11T19:37:02.329Z,63.05
2023-02-11T19:39:29.268Z,65.29
2023-02-11T19:41:56.221Z,63.97
2023-02-11T19:44:23.277Z,62.72
2023-02-11T19:46:53.610Z,61.75
2023-02-11T19:49:26.075Z,61.32
2023-02-11T19:51:55.698Z,61.12
2023-02-11T19:54:22.742Z,60.73
2023-02-11T19:56:51.490Z,60.36
2023-02-11T19:59:19.300Z,59.89
2023-02-11T20:01:49.323Z,60.07
2023-02-11T20:04:17.604Z,59.81
2023-02-11T20:06:44.769Z,59.20
2023-02-11T20:09:15.026Z,60.90
2023-02-11T20:11:43.271Z,64.60
2023-02-11T20:14:13.309Z,64.86
2023-02-11T20:16:48.679Z,63.89
2023-02-11T20:19:21.975Z,63.53
2023-02-11T20:21:52.974Z,62.81
2023-02-11T20:24:20.834Z,62.16
2023-02-11T20:26:48.878Z,61.40
2023-02-11T20:29:17.106Z,60.87
2023-02-11T20:31:44.347Z,60.49
2023-02-11T20:34:12.789Z,59.88
2023-02-11T20:36:40.890Z,59.19
2023-02-11T20:39:09.090Z,61.17
2023-02-11T20:41:40.025Z,64.88
2023-02-11T20:44:09.031Z,64.73
2023-02-11T20:46:40.335Z,63.39
2023-02-11T20:49:08.902Z,62.84
2023-02-11T20:51:37.140Z,62.20
2023-02-11T20:54:07.372Z,61.74
2023-02-11T20:56:37.492Z,61.37
2023-02-11T20:59:05.784Z,61.34
2023-02-11T21:01:40.875Z,60.68
2023-02-11T21:04:15.845Z,60.71
2023-02-11T21:06:49.148Z,60.21
2023-02-11T21:09:21.826Z,59.40
2023-02-11T21:11:51.779Z,58.20
2023-02-11T21:14:20.381Z,60.85
2023-02-11T21:16:48.609Z,63.70
2023-02-11T21:19:16.374Z,65.67
2023-02-11T21:21:43.938Z,63.80
2023-02-11T21:24:11.744Z,61.11
2023-02-11T21:26:39.317Z,58.38
2023-02-11T21:29:07.873Z,59.26
2023-02-11T21:31:36.361Z,61.76
2023-02-11T21:34:04.541Z,64.35
2023-02-11T21:36:31.585Z,63.73
2023-02-11T21:38:58.943Z,61.25
2023-02-11T21:41:27.628Z,59.03
2023-02-11T21:43:54.896Z,59.00
2023-02-11T21:46:22.804Z,60.89
2023-02-11T21:48:50.357Z,63.84
2023-02-11T21:51:20.440Z,62.85
2023-02-11T21:53:47.826Z,60.54
2023-02-11T21:56:18.652Z,58.71
2023-02-11T21:58:46.728Z,59.03
2023-02-11T22:01:17.102Z,60.40
2023-02-11T22:03:44.622Z,62.52
2023-02-11T22:06:22.604Z,63.98
2023-02-11T22:08:50.587Z,61.34
2023-02-11T22:11:17.952Z,59.15
2023-02-11T22:13:45.742Z,57.92
2023-02-11T22:16:16.929Z,59.96
2023-02-11T22:18:47.309Z,61.82
2023-02-11T22:21:19.585Z,64.61
2023-02-11T22:23:47.251Z,62.86
2023-02-11T22:26:17.857Z,57.80
2023-02-11T22:28:45.027Z,57.64
2023-02-11T22:31:14.885Z,60.50
2023-02-11T22:33:42.402Z,62.68
2023-02-11T22:36:19.794Z,64.53
2023-02-11T22:38:47.190Z,61.15
2023-02-11T22:41:14.668Z,58.24
2023-02-11T22:43:43.637Z,57.71
2023-02-11T22:46:13.666Z,59.34
2023-02-11T22:48:41.295Z,61.23
2023-02-11T22:51:11.321Z,64.51
2023-02-11T22:53:39.140Z,64.52
2023-02-11T22:56:15.024Z,61.77
2023-02-11T22:58:42.713Z,57.81
2023-02-11T23:01:10.643Z,58.03
2023-02-11T23:03:37.573Z,59.95
2023-02-11T23:06:05.198Z,61.16
2023-02-11T23:08:33.204Z,64.48
2023-02-11T23:11:09.723Z,63.53
2023-02-11T23:13:40.251Z,61.18
2023-02-11T23:16:11.275Z,57.45
2023-02-11T23:18:40.573Z,57.62
2023-02-11T23:21:17.924Z,60.27
2023-02-11T23:23:46.140Z,61.19
2023-02-11T23:26:15.477Z,64.07
2023-02-11T23:28:46.154Z,63.81
2023-02-11T23:31:18.195Z,61.53
2023-02-11T23:33:46.855Z,59.89
2023-02-11T23:36:14.827Z,56.85
2023-02-11T23:38:41.812Z,58.74
2023-02-11T23:41:09.079Z,60.22
2023-02-11T23:43:36.137Z,60.98
2023-02-11T23:46:03.820Z,64.80
2023-02-11T23:48:31.047Z,64.94
2023-02-11T23:50:57.996Z,63.35
2023-02-11T23:53:25.057Z,61.38
2023-02-11T23:55:52.164Z,59.47
2023-02-11T23:58:20.181Z,56.87
